Startpagina
METAR-TAF:

METAR-TAF

Vliegvelden :

Productieplatform

J6-a, Nederland

breedte: 53-49-27N, lengte: 2-56-43E, hoogte: 34 m

Actueel weer

Dit bericht is 26 minuten geleden gemaakt, om 00:55 UTC
Wind 20 kt uit het oosten
Temperatuur 10°C
Vochtigheid 76%
Druk 1032 hPa
Zicht 10 km of meer

METAR: EHJA 180055Z AUTO 08020KT 9999 ///////// 10/06 Q1032 W///H///

Tijdstip: 02:21 (01:21 UTC)


TAF: ontbreekt

Waarnemingen en weersverwachtingen van meer dan 4000 vliegvelden (METAR en TAF).

De beschikbare stations zijn de gele en rode punten op de kaart.

Ga met uw muis naar het station om de naam te zien.

Klik dan om waarnemingen en weersverwachtingen te zien.

kaart wijzigen: klik op de groene knoppen met een zwart kruis om in te zoomen, op de groene knop met een streepje om uit te zoomen of op de groene pijlen voor aangrenzende kaarten.


METAR-TAF: